Time;durP1;ratioP1;P1;durP2;ratioP2;P2;SDS_P1;SDS_P2;PMS_P1;PMS_P2;Temp;Humidity;BMP_temperature;BMP_pressure;BME280_temperature;BME280_humidity;BME280_pressure;Samples;Min_cycle;Max_cycle;Signal;HPM_P1;HPM_P2
2020/12/10 00:00:54;;;;;;;25.50;13.85;;;4.00;94.80;;;;;;5049183;28;20036;-43
2020/12/10 00:03:20;;;;;;;23.77;13.55;;;4.00;94.80;;;;;;5049110;28;20021;-43
2020/12/10 00:05:46;;;;;;;24.17;14.45;;;3.90;94.80;;;;;;5049106;28;20385;-44
2020/12/10 00:08:12;;;;;;;23.48;14.35;;;3.90;94.80;;;;;;5048630;28;20021;-43
2020/12/10 00:10:37;;;;;;;23.35;15.43;;;3.80;94.80;;;;;;5049871;28;20025;-44
2020/12/10 00:13:03;;;;;;;24.40;14.88;;;3.70;94.80;;;;;;5048987;28;20029;-43
2020/12/10 00:15:28;;;;;;;25.77;15.27;;;3.60;94.80;;;;;;5048536;28;20061;-44
2020/12/10 00:17:54;;;;;;;27.00;16.55;;;3.60;94.80;;;;;;5049252;28;20108;-44
2020/12/10 00:20:20;;;;;;;30.02;17.10;;;3.50;94.90;;;;;;5048741;28;20025;-44
2020/12/10 00:22:45;;;;;;;33.28;18.90;;;3.40;94.90;;;;;;5049252;28;20438;-44
2020/12/10 00:25:11;;;;;;;32.40;19.55;;;3.30;95.00;;;;;;5048882;28;20029;-43
2020/12/10 00:27:38;;;;;;;32.85;18.42;;;3.20;95.10;;;;;;5048427;28;20072;-43
2020/12/10 00:30:08;;;;;;;27.27;17.05;;;3.20;95.20;;;;;;5048978;28;20519;-43
2020/12/10 00:32:34;;;;;;;30.33;17.20;;;3.20;95.30;;;;;;5049321;28;20083;-42
2020/12/10 00:34:59;;;;;;;29.17;17.58;;;3.10;95.30;;;;;;5048247;28;20037;-43
2020/12/10 00:37:28;;;;;;;29.90;17.35;;;3.10;95.30;;;;;;5048259;28;20388;-43
2020/12/10 00:39:55;;;;;;;30.13;17.73;;;3.10;95.30;;;;;;5049013;28;20028;-43
2020/12/10 00:42:21;;;;;;;28.90;16.15;;;3.10;95.40;;;;;;5047828;28;20031;-42
2020/12/10 00:44:47;;;;;;;32.80;19.42;;;3.10;95.40;;;;;;5048600;28;20033;-44
2020/12/10 00:47:16;;;;;;;29.73;19.17;;;3.10;95.40;;;;;;5048398;28;20033;-43
2020/12/10 00:49:41;;;;;;;29.10;17.83;;;3.00;95.30;;;;;;5048205;28;20040;-43
2020/12/10 00:52:07;;;;;;;27.38;16.77;;;3.00;95.30;;;;;;5048351;28;20033;-43
2020/12/10 00:54:32;;;;;;;30.02;18.60;;;2.90;95.20;;;;;;5048801;28;20025;-43
2020/12/10 00:56:58;;;;;;;28.73;17.30;;;2.80;95.20;;;;;;5048002;28;20033;-43
2020/12/10 00:59:23;;;;;;;28.42;17.77;;;2.80;95.20;;;;;;5048091;28;20452;-43
2020/12/10 01:01:49;;;;;;;37.13;21.80;;;2.70;95.30;;;;;;5047831;28;20120;-43
2020/12/10 01:04:14;;;;;;;32.67;20.27;;;2.70;95.30;;;;;;5047796;28;20032;-43
2020/12/10 01:06:40;;;;;;;34.08;21.02;;;2.60;95.40;;;;;;5048562;28;20112;-42
2020/12/10 01:09:07;;;;;;;32.70;20.13;;;2.60;95.40;;;;;;5047769;28;20482;-43
2020/12/10 01:11:33;;;;;;;35.35;20.83;;;2.50;95.40;;;;;;5047988;28;20053;-43
2020/12/10 01:14:00;;;;;;;35.92;21.40;;;2.50;95.40;;;;;;5048411;28;20067;-43
2020/12/10 01:16:26;;;;;;;33.75;21.10;;;2.50;95.40;;;;;;5047263;28;20048;-43
2020/12/10 01:18:52;;;;;;;34.88;21.15;;;2.50;95.50;;;;;;5047698;28;20055;-44
2020/12/10 01:21:46;;;;;;;35.03;21.58;;;2.40;95.50;;;;;;5047576;28;20611;-43
2020/12/10 01:24:12;;;;;;;32.33;19.35;;;2.40;95.50;;;;;;5025777;28;20371;-43
2020/12/10 01:26:38;;;;;;;36.95;20.38;;;2.40;95.50;;;;;;5047909;28;20574;-43
2020/12/10 01:29:04;;;;;;;35.42;21.80;;;2.30;95.60;;;;;;5047778;28;20017;-44
2020/12/10 01:31:29;;;;;;;35.25;21.55;;;2.30;95.60;;;;;;5047130;28;20033;-44
2020/12/10 01:33:55;;;;;;;34.85;21.67;;;2.40;95.70;;;;;;5047853;28;20043;-43
2020/12/10 01:36:25;;;;;;;41.42;22.33;;;2.40;95.70;;;;;;5047101;28;20028;-43
2020/12/10 01:38:52;;;;;;;36.75;21.52;;;2.40;95.70;;;;;;5047415;28;20075;-43
2020/12/10 01:41:18;;;;;;;37.42;21.50;;;2.40;95.70;;;;;;5047561;28;20029;-43
2020/12/10 01:43:45;;;;;;;38.70;21.20;;;2.40;95.70;;;;;;5047808;28;20040;-43
2020/12/10 01:46:11;;;;;;;37.80;23.60;;;2.40;95.70;;;;;;5046858;28;20029;-43
2020/12/10 01:48:37;;;;;;;39.50;23.23;;;2.40;95.70;;;;;;5047777;28;20055;-42
2020/12/10 01:51:04;;;;;;;41.40;25.05;;;2.40;95.60;;;;;;5046879;28;20135;-43
2020/12/10 01:53:30;;;;;;;40.97;23.40;;;2.40;95.60;;;;;;5046760;28;20029;-43
2020/12/10 01:55:56;;;;;;;40.75;21.63;;;2.40;95.60;;;;;;5047798;28;20040;-43
2020/12/10 01:58:25;;;;;;;41.63;24.88;;;2.40;95.60;;;;;;5046357;28;20495;-42
2020/12/10 02:00:53;;;;;;;45.78;26.75;;;2.30;95.60;;;;;;5047313;28;20058;-42
2020/12/10 02:03:19;;;;;;;51.38;27.92;;;2.30;95.60;;;;;;5046741;28;20055;-44
2020/12/10 02:05:46;;;;;;;55.53;29.35;;;2.30;95.60;;;;;;5047100;28;20108;-44
2020/12/10 02:08:12;;;;;;;47.47;28.30;;;2.40;95.70;;;;;;5046792;28;20152;-43
2020/12/10 02:10:38;;;;;;;56.50;29.60;;;2.30;95.70;;;;;;5047501;28;20525;-44
2020/12/10 02:13:04;;;;;;;54.00;29.08;;;2.30;95.70;;;;;;5047030;28;20025;-43
2020/12/10 02:15:33;;;;;;;48.60;28.63;;;2.30;95.70;;;;;;5046768;28;20380;-42
2020/12/10 02:17:59;;;;;;;55.70;29.60;;;2.20;95.60;;;;;;5047154;28;20128;-44
2020/12/10 02:20:25;;;;;;;53.67;28.60;;;2.20;95.50;;;;;;5046354;28;20025;-43
2020/12/10 02:22:57;;;;;;;49.85;27.95;;;2.10;95.50;;;;;;5047147;28;20480;-42
2020/12/10 02:25:23;;;;;;;47.65;27.48;;;2.10;95.50;;;;;;5046415;28;20024;-42
2020/12/10 02:27:48;;;;;;;51.88;26.20;;;2.00;95.50;;;;;;5046640;28;20380;-44
2020/12/10 02:30:14;;;;;;;45.58;26.92;;;1.90;95.50;;;;;;5047537;28;20064;-43
2020/12/10 02:32:39;;;;;;;45.35;26.52;;;1.80;95.50;;;;;;5051138;28;20110;-43
2020/12/10 02:35:05;;;;;;;49.05;27.20;;;1.80;95.60;;;;;;5050306;28;20033;-43
2020/12/10 02:37:30;;;;;;;49.92;28.85;;;1.70;95.60;;;;;;5050976;28;20063;-43
2020/12/10 02:39:56;;;;;;;52.63;29.00;;;1.70;95.60;;;;;;5050942;28;20036;-42
2020/12/10 02:42:22;;;;;;;47.97;26.58;;;1.60;95.60;;;;;;5049913;28;20033;-44
2020/12/10 02:44:48;;;;;;;46.53;26.77;;;1.60;95.60;;;;;;5051136;28;20029;-42
2020/12/10 02:47:13;;;;;;;45.38;25.92;;;1.60;95.70;;;;;;5050094;28;20035;-43
2020/12/10 02:49:39;;;;;;;48.83;27.17;;;1.50;95.70;;;;;;5049921;28;20590;-43
2020/12/10 02:52:04;;;;;;;49.00;26.98;;;1.50;95.70;;;;;;5050548;28;20388;-43
2020/12/10 02:54:30;;;;;;;54.28;28.60;;;1.50;95.80;;;;;;5049800;28;20048;-42
2020/12/10 02:56:59;;;;;;;57.58;30.88;;;1.50;95.80;;;;;;5050632;28;20032;-43
2020/12/10 02:59:24;;;;;;;54.72;26.83;;;1.50;95.90;;;;;;5049719;28;20144;-43
2020/12/10 03:01:52;;;;;;;50.70;27.67;;;1.40;95.80;;;;;;5050041;28;20100;-43
2020/12/10 03:04:18;;;;;;;53.75;29.70;;;1.40;95.90;;;;;;5049930;28;20036;-42
2020/12/10 03:06:43;;;;;;;50.45;26.92;;;1.40;95.90;;;;;;5050480;28;20384;-43
2020/12/10 03:09:08;;;;;;;48.78;26.58;;;1.30;95.90;;;;;;5049122;28;20040;-42
2020/12/10 03:11:34;;;;;;;48.13;25.65;;;1.30;95.90;;;;;;5050370;28;20504;-42
2020/12/10 03:13:59;;;;;;;50.50;25.17;;;1.30;95.90;;;;;;5049909;28;20033;-43
2020/12/10 03:16:25;;;;;;;49.97;26.17;;;1.30;95.90;;;;;;5049029;28;20085;-43
2020/12/10 03:18:50;;;;;;;51.10;25.60;;;1.20;95.90;;;;;;5050405;28;20672;-42
2020/12/10 03:21:16;;;;;;;49.78;26.60;;;1.20;95.90;;;;;;5049538;28;20029;-43
2020/12/10 03:23:42;;;;;;;42.30;24.77;;;1.20;95.90;;;;;;5049796;28;20029;-43
2020/12/10 03:26:07;;;;;;;38.80;21.88;;;1.20;95.90;;;;;;5049953;28;20425;-43
2020/12/10 03:28:32;;;;;;;38.28;21.98;;;1.20;95.90;;;;;;5049703;28;20536;-43
2020/12/10 03:30:58;;;;;;;41.42;21.60;;;1.10;96.00;;;;;;5049419;28;20090;-42
2020/12/10 03:33:23;;;;;;;37.10;21.00;;;1.10;95.90;;;;;;5049296;28;20025;-43
2020/12/10 03:35:49;;;;;;;42.97;24.13;;;1.10;95.90;;;;;;5050000;28;20036;-43
2020/12/10 03:38:14;;;;;;;44.20;23.58;;;1.10;95.90;;;;;;5049181;28;20031;-43
2020/12/10 03:40:40;;;;;;;41.90;23.25;;;1.10;95.90;;;;;;5049203;28;20325;-43
2020/12/10 03:43:06;;;;;;;37.00;21.60;;;1.10;95.90;;;;;;5049503;28;20036;-43
2020/12/10 03:45:33;;;;;;;39.45;22.95;;;1.10;96.10;;;;;;5049186;28;20029;-42
2020/12/10 03:47:58;;;;;;;46.88;25.30;;;1.10;95.90;;;;;;5049428;28;20029;-43
2020/12/10 03:50:24;;;;;;;41.85;23.88;;;1.00;95.90;;;;;;5048813;28;20110;-43
2020/12/10 03:52:49;;;;;;;43.60;24.55;;;1.00;95.90;;;;;;5049428;28;20465;-43
2020/12/10 03:55:15;;;;;;;45.95;25.20;;;1.00;95.90;;;;;;5049288;28;20057;-43
2020/12/10 03:57:40;;;;;;;45.72;25.30;;;1.00;95.90;;;;;;5048949;28;20060;-43
2020/12/10 04:00:06;;;;;;;45.80;25.63;;;1.00;96.00;;;;;;5049358;28;20487;-43
2020/12/10 04:02:32;;;;;;;43.33;25.20;;;1.00;96.10;;;;;;5048946;28;20120;-42
2020/12/10 04:04:57;;;;;;;46.33;24.55;;;1.10;96.10;;;;;;5049094;28;20021;-42
2020/12/10 04:07:23;;;;;;;43.85;23.38;;;1.10;96.10;;;;;;5048928;28;20040;-42
2020/12/10 04:09:48;;;;;;;42.67;22.63;;;1.10;96.10;;;;;;5049183;28;20435;-44
2020/12/10 04:12:14;;;;;;;42.60;24.38;;;1.20;96.10;;;;;;5047937;28;20048;-43
2020/12/10 04:14:39;;;;;;;44.15;23.13;;;1.20;96.00;;;;;;5049566;28;20029;-42
2020/12/10 04:17:05;;;;;;;39.63;23.27;;;1.10;95.90;;;;;;5048904;28;20017;-43
2020/12/10 04:19:30;;;;;;;42.67;23.73;;;1.10;95.80;;;;;;5048221;28;20533;-43
2020/12/10 04:21:56;;;;;;;45.65;23.25;;;1.10;95.80;;;;;;5048723;28;20036;-42
2020/12/10 04:24:21;;;;;;;48.28;25.40;;;1.10;95.70;;;;;;5048683;28;20028;-42
2020/12/10 04:26:46;;;;;;;44.28;24.20;;;1.00;95.70;;;;;;5048786;28;20431;-43
2020/12/10 04:29:13;;;;;;;43.17;24.15;;;1.00;95.70;;;;;;5048230;28;20040;-43
2020/12/10 04:31:40;;;;;;;45.65;24.45;;;0.90;95.70;;;;;;5048678;28;20040;-43
2020/12/10 04:34:06;;;;;;;49.22;25.45;;;0.90;95.70;;;;;;5048753;28;20487;-43
2020/12/10 04:36:32;;;;;;;47.22;24.63;;;0.90;95.80;;;;;;5048497;28;20025;-42
2020/12/10 04:38:57;;;;;;;44.58;24.42;;;0.90;95.80;;;;;;5048719;28;20032;-43
2020/12/10 04:41:24;;;;;;;47.40;25.75;;;0.90;95.80;;;;;;5048209;28;20025;-42
2020/12/10 04:43:53;;;;;;;51.95;25.30;;;0.80;95.80;;;;;;5048636;28;20032;-43
2020/12/10 04:46:19;;;;;;;50.03;27.40;;;0.80;95.80;;;;;;5047614;28;20460;-43
2020/12/10 04:48:45;;;;;;;50.85;25.90;;;0.80;95.90;;;;;;5048115;28;20488;-43
2020/12/10 04:51:11;;;;;;;46.38;26.38;;;0.70;95.90;;;;;;5047842;28;20053;-43
2020/12/10 04:53:36;;;;;;;51.65;26.65;;;0.70;95.90;;;;;;5048046;28;20024;-42
2020/12/10 04:56:06;;;;;;;49.10;26.58;;;0.70;95.90;;;;;;5047930;28;20392;-43
2020/12/10 04:58:32;;;;;;;48.35;25.75;;;0.70;96.00;;;;;;5048211;28;20029;-43
2020/12/10 05:01:00;;;;;;;51.60;26.75;;;0.70;96.00;;;;;;5048073;28;20029;-43
2020/12/10 05:03:26;;;;;;;53.20;28.08;;;0.70;96.00;;;;;;5047663;28;20071;-43
2020/12/10 05:05:51;;;;;;;50.35;27.85;;;0.70;96.00;;;;;;5048163;28;20056;-43
2020/12/10 05:08:30;;;;;;;48.53;25.95;;;0.60;96.00;;;;;;5047390;28;20031;-44
2020/12/10 05:10:56;;;;;;;49.67;26.27;;;0.60;96.00;;;;;;5048172;28;20036;-44
2020/12/10 05:13:22;;;;;;;57.85;29.35;;;0.60;96.00;;;;;;5047181;28;20033;-43
2020/12/10 05:15:47;;;;;;;55.72;28.33;;;0.60;96.10;;;;;;5047744;28;20028;-42
2020/12/10 05:18:14;;;;;;;52.25;28.58;;;0.60;96.10;;;;;;5047673;28;20381;-43
2020/12/10 05:20:45;;;;;;;61.97;31.02;;;0.60;96.10;;;;;;5048042;28;20025;-43
2020/12/10 05:23:12;;;;;;;53.28;27.48;;;0.60;96.10;;;;;;5047285;28;20025;-43
2020/12/10 05:25:48;;;;;;;52.15;27.58;;;0.60;96.10;;;;;;5048500;28;20032;-44
2020/12/10 05:28:14;;;;;;;57.22;29.17;;;0.60;96.10;;;;;;5047638;28;20464;-43
2020/12/10 05:30:43;;;;;;;52.28;26.70;;;0.60;96.10;;;;;;5047615;28;20047;-42
2020/12/10 05:33:16;;;;;;;49.40;25.92;;;0.50;96.10;;;;;;5047529;28;20021;-42
2020/12/10 05:35:41;;;;;;;47.13;25.52;;;0.50;96.10;;;;;;5048535;28;20037;-42
2020/12/10 05:38:12;;;;;;;51.45;27.13;;;0.50;96.10;;;;;;5047103;28;20029;-43
2020/12/10 05:40:39;;;;;;;51.78;27.17;;;0.50;96.10;;;;;;5047958;28;20040;-43
2020/12/10 05:43:06;;;;;;;49.95;28.65;;;0.50;96.20;;;;;;5048327;28;20021;-43
2020/12/10 05:45:37;;;;;;;50.35;26.90;;;0.50;96.40;;;;;;5047450;28;20155;-44
2020/12/10 05:48:03;;;;;;;49.30;26.55;;;0.50;96.10;;;;;;5047803;28;20116;-43
2020/12/10 05:50:31;;;;;;;50.78;26.75;;;0.50;96.10;;;;;;5046753;28;20160;-44
2020/12/10 05:53:06;;;;;;;53.03;26.75;;;0.50;96.20;;;;;;5047836;28;20028;-43
2020/12/10 05:55:33;;;;;;;47.10;26.25;;;0.50;96.20;;;;;;5047692;28;20027;-44
2020/12/10 05:58:00;;;;;;;55.83;27.80;;;0.40;96.10;;;;;;5047834;28;20029;-44
2020/12/10 06:00:26;;;;;;;54.35;26.90;;;0.40;96.10;;;;;;5047325;28;20032;-43
2020/12/10 06:02:53;;;;;;;57.22;28.15;;;0.40;96.20;;;;;;5047716;28;20107;-42
2020/12/10 06:05:19;;;;;;;54.90;28.67;;;0.40;96.30;;;;;;5046829;28;20045;-43
2020/12/10 06:07:59;;;;;;;53.58;28.55;;;0.40;96.20;;;;;;5047762;28;20408;-43
2020/12/10 06:10:25;;;;;;;59.95;30.10;;;0.40;96.20;;;;;;5046854;28;20566;-43
2020/12/10 06:12:52;;;;;;;61.65;30.23;;;0.40;96.20;;;;;;5047362;28;20029;-42
2020/12/10 06:15:28;;;;;;;55.97;29.27;;;0.40;96.20;;;;;;5046934;28;20068;-43
2020/12/10 06:18:13;;;;;;;53.90;28.85;;;0.40;96.20;;;;;;5047557;28;20033;-42
2020/12/10 06:20:48;;;;;;;62.58;31.17;;;0.40;96.20;;;;;;5047479;28;20025;-43
2020/12/10 06:23:23;;;;;;;58.55;31.25;;;0.40;96.20;;;;;;5046971;28;20575;-43
2020/12/10 06:25:50;;;;;;;62.47;30.95;;;0.40;96.20;;;;;;5047069;28;20036;-43
2020/12/10 06:28:17;;;;;;;60.80;30.92;;;0.40;96.30;;;;;;5046679;28;20083;-43
2020/12/10 06:30:42;;;;;;;57.47;30.63;;;0.40;96.30;;;;;;5047421;28;20072;-42
2020/12/10 06:33:08;;;;;;;61.97;30.15;;;0.40;96.30;;;;;;5046471;28;20059;-43
2020/12/10 06:35:35;;;;;;;65.38;32.25;;;0.40;96.40;;;;;;5047354;28;20120;-43
2020/12/10 06:38:05;;;;;;;57.00;30.33;;;0.40;96.30;;;;;;5046934;28;20476;-44
2020/12/10 06:40:39;;;;;;;58.08;29.55;;;0.40;96.30;;;;;;5047234;28;20404;-42
2020/12/10 06:43:06;;;;;;;55.90;29.10;;;0.40;96.40;;;;;;5047601;28;20116;-45
2020/12/10 06:45:34;;;;;;;51.53;25.85;;;0.40;96.40;;;;;;5047594;28;20035;-43
2020/12/10 06:48:05;;;;;;;52.65;27.75;;;0.40;96.40;;;;;;5047502;28;20021;-44
2020/12/10 06:50:32;;;;;;;49.08;26.30;;;0.40;96.40;;;;;;5046536;28;20119;-44
2020/12/10 06:53:07;;;;;;;56.13;27.33;;;0.40;96.40;;;;;;5047595;28;20031;-44
2020/12/10 06:55:33;;;;;;;53.58;26.90;;;0.40;96.30;;;;;;5046472;28;20059;-43
2020/12/10 06:58:16;;;;;;;53.33;28.85;;;0.40;96.40;;;;;;5049153;28;20052;-44
2020/12/10 07:00:53;;;;;;;54.78;29.55;;;0.40;96.30;;;;;;5047255;28;20025;-45
2020/12/10 07:03:26;;;;;;;59.45;29.48;;;0.40;96.30;;;;;;5044501;28;20033;-44
2020/12/10 07:05:52;;;;;;;;;;;0.40;96.30;;;;;;5047004;28;20021;-43
2020/12/10 07:08:19;;;;;;;54.28;27.52;;;0.40;96.30;;;;;;5045524;28;19915;-43
2020/12/10 07:10:47;;;;;;;61.20;31.50;;;0.40;96.20;;;;;;5046785;28;20082;-43
2020/12/10 07:13:15;;;;;;;50.33;25.73;;;0.30;96.20;;;;;;5045341;28;20020;-43
2020/12/10 07:15:47;;;;;;;54.65;29.02;;;0.30;96.20;;;;;;5046135;28;20029;-43
2020/12/10 07:18:13;;;;;;;57.72;29.02;;;0.30;96.30;;;;;;5049488;28;20025;-43
2020/12/10 07:20:39;;;;;;;57.53;27.00;;;0.30;96.30;;;;;;5050944;28;20017;-43
2020/12/10 07:23:04;;;;;;;52.10;27.00;;;0.30;96.30;;;;;;5056850;28;20529;-44
2020/12/10 07:25:30;;;;;;;52.28;27.13;;;0.30;96.30;;;;;;5058506;28;20017;-44
2020/12/10 07:27:56;;;;;;;54.72;28.70;;;0.30;96.30;;;;;;5067778;28;20471;-43
2020/12/10 07:30:29;;;;;;;55.60;28.35;;;0.30;96.30;;;;;;5068336;28;20038;-43
2020/12/10 07:32:56;;;;;;;57.10;28.60;;;0.30;96.20;;;;;;5060932;28;20025;-43
2020/12/10 07:35:41;;;;;;;57.10;30.42;;;0.30;96.30;;;;;;5059189;28;20021;-41
2020/12/10 07:38:08;;;;;;;55.65;28.73;;;0.30;96.30;;;;;;5057918;28;20372;-44
2020/12/10 07:40:33;;;;;;;61.50;30.63;;;0.30;96.20;;;;;;5067543;28;20016;-44
2020/12/10 07:43:09;;;;;;;54.30;29.50;;;0.30;96.30;;;;;;5070200;28;20031;-43
2020/12/10 07:45:36;;;;;;;63.05;31.08;;;0.30;96.20;;;;;;5066027;28;20021;-43
2020/12/10 07:48:04;;;;;;;55.97;29.67;;;0.30;96.20;;;;;;5065128;28;20029;-43
2020/12/10 07:50:32;;;;;;;51.83;26.67;;;0.30;96.30;;;;;;5059701;28;20049;-44
2020/12/10 07:53:03;;;;;;;50.97;26.33;;;0.30;96.20;;;;;;5055503;28;20017;-44
2020/12/10 07:55:30;;;;;;;53.28;28.35;;;0.30;96.30;;;;;;5049633;28;20043;-43
2020/12/10 07:58:11;;;;;;;55.72;29.27;;;0.30;96.30;;;;;;5050027;28;20028;-43
2020/12/10 08:00:38;;;;;;;57.00;29.65;;;0.30;96.30;;;;;;5056961;28;20570;-44
2020/12/10 08:03:24;;;;;;;55.70;29.80;;;0.30;96.30;;;;;;5066956;28;20059;-42
2020/12/10 08:06:01;;;;;;;59.13;30.70;;;0.30;96.30;;;;;;5069389;28;20035;-43
2020/12/10 08:08:56;;;;;;;62.60;31.45;;;0.30;96.30;;;;;;5069803;28;20055;-42
2020/12/10 08:11:21;;;;;;;64.05;32.15;;;0.30;96.30;;;;;;5062704;28;20037;-44
2020/12/10 08:14:08;;;;;;;67.68;33.30;;;0.30;96.30;;;;;;5069781;28;20081;-44
2020/12/10 08:16:44;;;;;;;60.67;30.33;;;0.30;96.30;;;;;;5070013;28;20024;-42
2020/12/10 08:19:21;;;;;;;55.40;29.80;;;0.30;96.30;;;;;;5068925;28;20048;-44
2020/12/10 08:21:48;;;;;;;68.55;33.55;;;0.30;96.40;;;;;;5069624;28;20017;-43
2020/12/10 08:24:32;;;;;;;67.15;32.75;;;0.30;96.40;;;;;;5069551;28;20305;-44
2020/12/10 08:26:58;;;;;;;61.78;32.42;;;0.40;96.40;;;;;;5065693;28;20460;-43
2020/12/10 08:29:23;;;;;;;70.93;35.90;;;0.40;96.40;;;;;;5068889;28;20032;-42
2020/12/10 08:31:49;;;;;;;64.70;33.42;;;0.40;96.40;;;;;;5060217;28;20382;-42
2020/12/10 08:34:18;;;;;;;65.88;32.25;;;0.40;96.40;;;;;;5060865;28;20024;-43
2020/12/10 08:36:44;;;;;;;64.32;33.70;;;0.40;96.40;;;;;;5069418;28;20024;-43
2020/12/10 08:39:10;;;;;;;62.45;32.88;;;0.40;96.40;;;;;;5063840;28;20508;-44
2020/12/10 08:41:37;;;;;;;59.23;31.23;;;0.40;96.40;;;;;;5062192;28;20111;-42
2020/12/10 08:44:07;;;;;;;67.63;34.72;;;0.40;96.40;;;;;;5069302;28;20054;-43
2020/12/10 08:46:34;;;;;;;70.95;33.85;;;0.40;96.40;;;;;;5069287;28;20158;-42
2020/12/10 08:49:18;;;;;;;64.28;32.58;;;0.50;96.40;;;;;;5069066;28;20033;-42
2020/12/10 08:51:47;;;;;;;58.72;29.95;;;0.50;96.40;;;;;;5069003;28;20060;-42
2020/12/10 08:54:13;;;;;;;74.70;36.50;;;0.50;96.40;;;;;;5067826;28;20029;-42
2020/12/10 08:56:38;;;;;;;71.07;34.42;;;0.50;96.40;;;;;;5063410;28;20033;-42
2020/12/10 08:59:05;;;;;;;65.95;32.70;;;0.50;96.40;;;;;;5058121;28;20032;-42
2020/12/10 09:01:31;;;;;;;71.68;34.70;;;0.50;96.40;;;;;;5058819;28;20044;-43
2020/12/10 09:03:57;;;;;;;67.70;34.80;;;0.50;96.30;;;;;;5058375;28;20481;-42
2020/12/10 09:06:23;;;;;;;69.85;35.80;;;0.50;96.40;;;;;;5052012;28;20390;-44
2020/12/10 09:08:51;;;;;;;72.30;35.15;;;0.50;96.30;;;;;;5048234;28;20021;-43
2020/12/10 09:11:17;;;;;;;67.72;33.90;;;0.50;96.30;;;;;;5048139;28;20029;-43
2020/12/10 09:13:43;;;;;;;70.65;34.38;;;0.60;96.30;;;;;;5048488;28;20453;-42
2020/12/10 09:16:09;;;;;;;67.93;34.58;;;0.60;96.30;;;;;;5049577;28;20021;-43
2020/12/10 09:18:35;;;;;;;69.25;33.78;;;0.60;96.30;;;;;;5045583;28;20108;-43
2020/12/10 09:21:00;;;;;;;67.63;33.17;;;0.60;96.20;;;;;;5048210;28;20591;-42
2020/12/10 09:23:26;;;;;;;66.60;34.92;;;0.60;96.30;;;;;;5047144;28;20029;-43
2020/12/10 09:25:53;;;;;;;66.13;33.03;;;0.60;96.30;;;;;;5047967;28;20024;-43
2020/12/10 09:28:19;;;;;;;63.45;33.00;;;0.60;96.30;;;;;;5046867;28;20025;-43
2020/12/10 09:30:44;;;;;;;69.30;33.83;;;0.60;96.30;;;;;;5047595;28;20041;-44
2020/12/10 09:33:10;;;;;;;72.45;33.80;;;0.70;96.30;;;;;;5046997;28;20021;-43
2020/12/10 09:35:36;;;;;;;59.35;31.35;;;0.70;96.30;;;;;;5047298;28;20029;-43
2020/12/10 09:38:03;;;;;;;72.32;33.85;;;0.70;96.30;;;;;;5047410;28;20543;-43
2020/12/10 09:40:29;;;;;;;61.70;31.30;;;0.80;96.30;;;;;;5046465;28;20061;-43
2020/12/10 09:42:54;;;;;;;64.47;32.88;;;0.80;96.30;;;;;;5047580;28;20053;-43
2020/12/10 09:45:20;;;;;;;61.08;32.97;;;0.80;96.30;;;;;;5047028;28;20032;-42
2020/12/10 09:47:46;;;;;;;61.35;31.92;;;0.90;96.30;;;;;;5047542;28;20472;-44
2020/12/10 09:50:25;;;;;;;66.18;34.28;;;0.90;96.20;;;;;;5046217;28;20035;-42
2020/12/10 09:58:21;;;;;;;59.10;30.63;;;1.10;96.20;;;;;;5046637;28;20112;-42
2020/12/10 10:00:49;;;;;;;59.03;30.95;;;1.10;96.10;;;;;;5047933;28;20029;-44
2020/12/10 10:03:19;;;;;;;63.75;33.20;;;1.10;96.10;;;;;;5046562;28;20033;-43
2020/12/10 10:05:45;;;;;;;60.08;31.98;;;1.20;96.10;;;;;;5047896;28;20056;-44
2020/12/10 10:08:10;;;;;;;65.80;32.60;;;1.20;96.00;;;;;;5047595;28;20052;-43
2020/12/10 10:10:36;;;;;;;60.28;31.55;;;1.20;96.00;;;;;;5047395;28;20053;-43
2020/12/10 10:13:02;;;;;;;51.40;28.92;;;1.20;95.90;;;;;;5047747;28;20482;-43
2020/12/10 10:15:27;;;;;;;53.15;29.15;;;1.30;95.90;;;;;;5047565;28;20029;-43
2020/12/10 10:17:53;;;;;;;55.10;29.83;;;1.30;95.90;;;;;;5047606;28;20452;-43
2020/12/10 10:20:18;;;;;;;57.45;30.58;;;1.20;95.90;;;;;;5047397;28;20029;-42
2020/12/10 10:22:44;;;;;;;52.70;29.85;;;1.30;95.90;;;;;;5048100;28;20048;-43
2020/12/10 10:25:10;;;;;;;50.25;27.88;;;1.30;95.90;;;;;;5046632;28;20029;-43
2020/12/10 10:27:36;;;;;;;54.42;29.25;;;1.30;95.90;;;;;;5047668;28;20052;-44
2020/12/10 10:30:05;;;;;;;48.80;26.60;;;1.30;95.90;;;;;;5047896;28;20221;-42
2020/12/10 10:32:31;;;;;;;52.30;28.85;;;1.30;95.90;;;;;;5047141;28;20055;-42
2020/12/10 10:34:56;;;;;;;53.35;27.92;;;1.30;95.80;;;;;;5047779;28;20032;-42
2020/12/10 10:37:22;;;;;;;55.35;29.05;;;1.30;95.80;;;;;;5047544;28;20067;-42
2020/12/10 10:39:47;;;;;;;52.90;27.77;;;1.30;95.80;;;;;;5054564;28;20385;-42
2020/12/10 10:42:13;;;;;;;59.92;29.63;;;1.30;96.10;;;;;;5055567;28;20052;-43
2020/12/10 10:44:38;;;;;;;59.65;30.48;;;1.30;95.80;;;;;;5053768;28;20025;-43
2020/12/10 10:47:04;;;;;;;62.10;33.15;;;1.30;95.80;;;;;;5051882;28;20041;-44
2020/12/10 10:49:29;;;;;;;57.22;30.80;;;1.30;95.70;;;;;;5047180;28;20036;-43
2020/12/10 10:51:55;;;;;;;54.05;28.10;;;1.30;95.80;;;;;;5049880;28;20033;-43
2020/12/10 10:54:20;;;;;;;57.10;29.20;;;1.30;95.70;;;;;;5050937;28;20024;-43
2020/12/10 10:56:46;;;;;;;56.80;31.30;;;1.30;95.70;;;;;;5051593;28;20057;-42
2020/12/10 10:59:11;;;;;;;52.75;28.20;;;1.30;95.80;;;;;;5050657;28;20021;-42
2020/12/10 11:01:37;;;;;;;51.67;28.05;;;1.40;95.70;;;;;;5062259;28;20586;-43
2020/12/10 11:04:02;;;;;;;45.95;24.92;;;1.30;95.70;;;;;;5071515;28;20353;-44
2020/12/10 11:06:28;;;;;;;50.90;26.30;;;1.40;95.80;;;;;;5070993;28;20028;-43
2020/12/10 11:08:54;;;;;;;55.83;28.85;;;1.40;95.70;;;;;;5071269;28;20096;-43
2020/12/10 11:11:22;;;;;;;55.55;29.55;;;1.40;95.70;;;;;;5070593;28;20086;-43
2020/12/10 11:13:48;;;;;;;58.38;31.20;;;1.40;95.70;;;;;;5070624;28;20017;-43
2020/12/10 11:16:14;;;;;;;54.90;31.80;;;1.40;95.70;;;;;;5071147;28;20032;-44
2020/12/10 11:18:41;;;;;;;55.88;31.02;;;1.50;95.70;;;;;;5071278;28;20024;-43
2020/12/10 11:21:06;;;;;;;60.70;29.08;;;1.50;95.70;;;;;;5070426;28;20074;-44
2020/12/10 11:23:32;;;;;;;55.60;30.50;;;1.50;95.70;;;;;;5071087;28;20099;-43
2020/12/10 11:25:57;;;;;;;52.05;29.48;;;1.60;95.70;;;;;;5071158;28;20170;-43
2020/12/10 11:28:23;;;;;;;57.10;30.13;;;1.60;95.60;;;;;;5069955;28;20028;-44
2020/12/10 11:30:49;;;;;;;53.50;30.30;;;1.70;95.60;;;;;;5071076;28;20574;-44
2020/12/10 11:33:14;;;;;;;52.08;27.77;;;1.70;95.60;;;;;;5070336;28;20116;-43
2020/12/10 11:35:40;;;;;;;52.35;29.92;;;1.70;95.60;;;;;;5070370;28;20437;-43
2020/12/10 11:38:05;;;;;;;47.75;27.83;;;1.80;95.60;;;;;;5071219;28;20074;-43
2020/12/10 11:40:31;;;;;;;51.40;28.90;;;1.80;95.60;;;;;;5070584;28;20025;-44
2020/12/10 11:42:56;;;;;;;56.67;30.50;;;1.80;95.50;;;;;;5070264;28;20099;-44
2020/12/10 11:45:22;;;;;;;57.00;31.77;;;1.90;95.50;;;;;;5070307;28;20078;-43
2020/12/10 11:47:48;;;;;;;52.42;30.73;;;1.90;95.50;;;;;;5070750;28;20027;-43
2020/12/10 11:50:20;;;;;;;49.75;28.80;;;2.00;95.40;;;;;;5069592;28;20495;-43
2020/12/10 11:52:50;;;;;;;54.38;30.27;;;2.00;95.40;;;;;;5070591;28;20484;-43
2020/12/10 11:55:17;;;;;;;51.38;29.23;;;2.00;95.30;;;;;;5070066;28;20455;-42
2020/12/10 11:57:43;;;;;;;51.33;30.35;;;2.10;95.30;;;;;;5067938;28;20453;-43
2020/12/10 12:00:09;;;;;;;50.65;28.48;;;2.10;95.20;;;;;;5052094;28;20025;-43
2020/12/10 12:02:35;;;;;;;47.92;27.55;;;2.10;95.20;;;;;;5054192;28;20014;-45
2020/12/10 12:05:02;;;;;;;46.92;26.45;;;2.20;95.20;;;;;;5063484;28;20086;-44
2020/12/10 12:07:27;;;;;;;54.75;27.60;;;2.20;95.10;;;;;;5071172;28;20047;-42
2020/12/10 12:09:53;;;;;;;52.78;28.08;;;2.30;95.10;;;;;;5069590;28;20491;-42
2020/12/10 12:12:18;;;;;;;46.08;26.63;;;2.30;95.00;;;;;;5068873;28;20066;-42
2020/12/10 12:14:44;;;;;;;45.85;25.90;;;2.40;95.00;;;;;;5070189;28;20033;-43
2020/12/10 12:17:09;;;;;;;48.85;27.33;;;2.40;94.90;;;;;;5059877;28;20024;-42
2020/12/10 12:19:35;;;;;;;50.72;26.73;;;2.40;94.90;;;;;;5059826;28;20043;-44
2020/12/10 12:22:01;;;;;;;48.00;29.15;;;2.40;94.90;;;;;;5065217;28;20466;-44
2020/12/10 12:24:27;;;;;;;49.70;27.88;;;2.50;94.80;;;;;;5069010;28;20037;-42
2020/12/10 12:26:52;;;;;;;52.50;29.23;;;2.50;94.70;;;;;;5068869;28;20052;-44
2020/12/10 12:29:18;;;;;;;49.70;26.77;;;2.50;94.70;;;;;;5060761;28;20028;-42
2020/12/10 12:31:43;;;;;;;48.33;27.73;;;2.50;94.60;;;;;;5060343;28;20059;-43
2020/12/10 12:34:09;;;;;;;50.22;27.83;;;2.50;94.60;;;;;;5061890;28;20048;-44
2020/12/10 12:36:35;;;;;;;47.20;27.77;;;2.50;94.60;;;;;;5051127;28;20083;-43
2020/12/10 12:39:01;;;;;;;51.70;29.85;;;2.50;94.60;;;;;;5049056;28;20033;-44
2020/12/10 12:41:28;;;;;;;46.25;26.80;;;2.50;94.60;;;;;;5048623;28;20028;-42
2020/12/10 12:43:54;;;;;;;45.38;25.60;;;2.50;94.50;;;;;;5053300;28;20025;-43